createdAt,value
2018-07-06T00:01:20.692Z,3.27
2018-07-06T00:04:00.151Z,3.47
2018-07-06T00:06:39.767Z,3.10
2018-07-06T00:09:20.228Z,4.00
2018-07-06T00:11:59.973Z,3.40
2018-07-06T00:14:39.355Z,4.20
2018-07-06T00:17:18.960Z,3.30
2018-07-06T00:19:58.510Z,3.27
2018-07-06T00:22:38.004Z,4.77
2018-07-06T00:25:17.513Z,4.07
2018-07-06T00:27:57.868Z,4.77
2018-07-06T00:30:37.479Z,4.10
2018-07-06T00:33:17.009Z,4.77
2018-07-06T00:35:56.435Z,3.90
2018-07-06T00:38:35.919Z,3.90
2018-07-06T00:41:15.432Z,4.70
2018-07-06T00:43:55.029Z,4.47
2018-07-06T00:46:34.521Z,4.17
2018-07-06T00:49:14.005Z,4.17
2018-07-06T00:51:53.832Z,4.80
2018-07-06T00:54:33.305Z,4.63
2018-07-06T00:57:12.790Z,4.53
2018-07-06T00:59:52.411Z,4.43
2018-07-06T01:02:32.024Z,4.50
2018-07-06T01:05:11.616Z,5.27
2018-07-06T01:07:51.237Z,5.37
2018-07-06T01:10:30.769Z,5.33
2018-07-06T01:13:10.128Z,5.47
2018-07-06T01:15:49.768Z,6.80
2018-07-06T01:18:29.232Z,6.03
2018-07-06T01:21:08.819Z,5.97
2018-07-06T01:23:48.319Z,6.00
2018-07-06T01:26:27.900Z,5.30
2018-07-06T01:29:07.540Z,6.00
2018-07-06T01:31:47.193Z,7.07
2018-07-06T01:34:26.824Z,6.17
2018-07-06T01:37:06.611Z,5.73
2018-07-06T01:39:46.101Z,5.73
2018-07-06T01:42:25.555Z,7.03
2018-07-06T01:45:05.725Z,6.87
2018-07-06T01:47:45.477Z,6.97
2018-07-06T01:50:25.212Z,6.97
2018-07-06T01:53:05.621Z,8.63
2018-07-06T01:55:45.215Z,7.67
2018-07-06T01:58:24.860Z,7.77
2018-07-06T02:01:04.688Z,8.00
2018-07-06T02:03:44.046Z,7.90
2018-07-06T02:06:23.615Z,7.90
2018-07-06T02:09:03.176Z,8.73
2018-07-06T02:11:42.839Z,7.70
2018-07-06T02:14:22.528Z,8.27
2018-07-06T02:17:02.037Z,8.10
2018-07-06T02:19:41.634Z,8.77
2018-07-06T02:22:21.124Z,8.70
2018-07-06T02:25:00.981Z,9.43
2018-07-06T02:27:40.668Z,10.03
2018-07-06T02:30:20.184Z,9.10
2018-07-06T02:32:59.824Z,8.87
2018-07-06T02:35:39.360Z,8.60
2018-07-06T02:38:18.901Z,8.67
2018-07-06T02:40:58.389Z,8.40
2018-07-06T02:43:38.025Z,9.40
2018-07-06T02:46:17.708Z,10.40
2018-07-06T02:48:57.403Z,9.47
2018-07-06T02:51:37.008Z,9.50
2018-07-06T02:54:16.605Z,10.03
2018-07-06T02:56:56.101Z,8.97
2018-07-06T02:59:35.580Z,9.57
2018-07-06T03:02:15.217Z,9.73
2018-07-06T03:04:55.098Z,8.67
2018-07-06T03:07:34.756Z,9.10
2018-07-06T03:10:14.231Z,10.60
2018-07-06T03:12:53.843Z,9.73
2018-07-06T03:15:33.633Z,9.93
2018-07-06T03:18:13.228Z,9.70
2018-07-06T03:20:52.640Z,9.90
2018-07-06T03:23:32.364Z,10.27
2018-07-06T03:26:11.894Z,9.70
2018-07-06T03:28:51.713Z,9.90
2018-07-06T03:31:30.930Z,9.47
2018-07-06T03:34:10.542Z,11.10
2018-07-06T03:36:50.143Z,11.10
2018-07-06T03:39:29.715Z,10.70
2018-07-06T03:42:09.358Z,10.37
2018-07-06T03:44:48.871Z,9.53
2018-07-06T03:47:28.547Z,11.33
2018-07-06T03:50:08.196Z,11.37
2018-07-06T03:52:47.567Z,10.10
2018-07-06T03:55:27.097Z,10.50
2018-07-06T03:58:06.689Z,11.20
2018-07-06T04:00:46.441Z,10.70
2018-07-06T04:03:26.060Z,11.93
2018-07-06T04:06:05.732Z,10.60
2018-07-06T04:08:45.236Z,11.23
2018-07-06T04:11:24.802Z,11.83
2018-07-06T04:14:04.444Z,12.37
2018-07-06T04:16:44.020Z,10.50
2018-07-06T04:19:23.611Z,11.20
2018-07-06T04:22:03.301Z,10.60
2018-07-06T04:24:42.818Z,11.23
2018-07-06T04:27:22.384Z,12.10
2018-07-06T04:30:01.972Z,13.37
2018-07-06T04:32:41.311Z,13.10
2018-07-06T04:35:20.963Z,13.27
2018-07-06T04:38:00.428Z,13.03
2018-07-06T04:40:40.082Z,13.10
2018-07-06T04:43:19.665Z,12.70
2018-07-06T04:45:59.364Z,13.53
2018-07-06T04:48:38.890Z,12.90
2018-07-06T04:51:18.572Z,11.23
2018-07-06T04:53:58.223Z,10.90
2018-07-06T04:56:37.797Z,12.90
2018-07-06T04:59:17.447Z,11.60
2018-07-06T05:01:57.087Z,13.80
2018-07-06T05:04:36.708Z,12.40
2018-07-06T05:07:16.172Z,13.30
2018-07-06T05:09:55.760Z,14.30
2018-07-06T05:12:35.209Z,14.00
2018-07-06T05:15:14.840Z,13.97
2018-07-06T05:17:54.307Z,12.83
2018-07-06T05:20:33.897Z,14.10
2018-07-06T05:23:13.415Z,12.13
2018-07-06T05:25:52.863Z,13.20
2018-07-06T05:28:32.717Z,13.13
2018-07-06T05:31:12.342Z,13.07
2018-07-06T05:33:51.796Z,13.57
2018-07-06T05:36:31.169Z,12.67
2018-07-06T05:39:11.161Z,13.83
2018-07-06T05:41:50.943Z,13.93
2018-07-06T05:44:30.544Z,13.10
2018-07-06T05:47:10.738Z,13.07
2018-07-06T05:49:50.236Z,14.30
2018-07-06T05:52:29.932Z,13.50
2018-07-06T05:55:09.391Z,14.63
2018-07-06T05:57:49.020Z,13.77
2018-07-06T06:00:28.485Z,13.33
2018-07-06T06:03:08.141Z,12.53
2018-07-06T06:05:47.755Z,14.63
2018-07-06T06:08:15.051Z,18.17
2018-07-06T06:10:43.475Z,24.60
2018-07-06T06:13:12.032Z,23.83
2018-07-06T06:15:40.509Z,24.73
2018-07-06T06:18:08.994Z,28.47
2018-07-06T06:20:37.460Z,20.30
2018-07-06T06:23:05.935Z,21.73
2018-07-06T06:25:34.420Z,23.30
2018-07-06T06:28:03.502Z,29.37
2018-07-06T06:30:32.032Z,31.73
2018-07-06T06:33:00.485Z,35.43
2018-07-06T06:35:28.936Z,31.73
2018-07-06T06:37:57.329Z,32.97
2018-07-06T06:40:25.895Z,35.10
2018-07-06T06:42:54.439Z,35.60
2018-07-06T06:45:23.020Z,23.37
2018-07-06T06:47:51.560Z,19.50
2018-07-06T06:50:20.078Z,20.03
2018-07-06T06:52:48.600Z,22.70
2018-07-06T06:55:17.202Z,24.17
2018-07-06T06:57:45.747Z,20.90
2018-07-06T07:00:14.395Z,21.53
2018-07-06T07:02:43.040Z,23.80
2018-07-06T07:05:11.607Z,23.33
2018-07-06T07:07:40.192Z,26.23
2018-07-06T07:10:08.720Z,25.70
2018-07-06T07:12:37.232Z,29.73
2018-07-06T07:15:06.300Z,28.53
2018-07-06T07:17:34.813Z,28.03
2018-07-06T07:20:03.277Z,29.30
2018-07-06T07:22:31.836Z,27.87
2018-07-06T07:25:01.377Z,22.90
2018-07-06T07:27:30.275Z,19.83
2018-07-06T07:30:00.170Z,20.40
2018-07-06T07:32:28.676Z,29.00
2018-07-06T07:34:57.808Z,31.73
2018-07-06T07:37:26.273Z,22.50
2018-07-06T07:39:54.807Z,18.87
2018-07-06T07:42:23.302Z,16.20
2018-07-06T07:44:51.982Z,22.30
2018-07-06T07:47:20.600Z,21.60
2018-07-06T07:49:49.075Z,25.90
2018-07-06T07:52:28.778Z,15.03
2018-07-06T07:54:57.226Z,15.40
2018-07-06T07:57:25.743Z,12.60
2018-07-06T07:59:55.527Z,12.43
2018-07-06T08:02:24.077Z,15.17
2018-07-06T08:04:53.340Z,14.20
2018-07-06T08:07:21.805Z,12.40
2018-07-06T08:09:50.223Z,14.40
2018-07-06T08:12:18.673Z,13.03
2018-07-06T08:14:47.165Z,14.00
2018-07-06T08:17:15.687Z,14.07
2018-07-06T08:19:44.083Z,12.93
2018-07-06T08:22:12.167Z,13.40
2018-07-06T08:24:40.900Z,15.07
2018-07-06T08:27:09.301Z,14.13
2018-07-06T08:29:37.780Z,16.47
2018-07-06T08:32:06.306Z,13.50
2018-07-06T08:34:45.797Z,14.60
2018-07-06T08:37:57.403Z,15.10
2018-07-06T08:40:26.753Z,13.37
2018-07-06T08:42:57.231Z,15.07
2018-07-06T08:45:26.008Z,14.53
2018-07-06T08:47:55.297Z,15.27
2018-07-06T08:50:23.976Z,15.80
2018-07-06T08:52:52.968Z,16.53
2018-07-06T08:55:21.629Z,14.83
2018-07-06T08:57:51.391Z,15.17
2018-07-06T09:00:19.920Z,16.97
2018-07-06T09:02:48.345Z,17.00
2018-07-06T09:05:16.768Z,16.10
2018-07-06T09:07:45.261Z,16.00
2018-07-06T09:10:13.735Z,16.77
2018-07-06T09:12:42.220Z,16.87
2018-07-06T09:15:10.756Z,15.73
2018-07-06T09:17:40.066Z,15.80
2018-07-06T09:20:08.783Z,15.33
2018-07-06T09:22:37.089Z,16.00
2018-07-06T09:25:06.987Z,15.60
2018-07-06T09:27:35.407Z,15.17
2018-07-06T09:30:03.858Z,13.97
2018-07-06T09:32:32.336Z,15.80
2018-07-06T09:35:01.318Z,15.83
2018-07-06T09:37:29.822Z,15.43
2018-07-06T09:39:58.258Z,14.90
2018-07-06T09:42:26.724Z,15.03
2018-07-06T09:44:55.535Z,15.83
2018-07-06T09:47:23.998Z,14.50
2018-07-06T09:49:52.388Z,15.43
2018-07-06T09:52:20.829Z,14.43
2018-07-06T09:54:49.276Z,16.10
2018-07-06T09:57:17.696Z,16.57
2018-07-06T09:59:46.059Z,16.17
2018-07-06T10:02:14.411Z,15.87
2018-07-06T10:04:42.748Z,14.90
2018-07-06T10:07:11.694Z,13.83
2018-07-06T10:09:40.318Z,15.60
2018-07-06T10:12:08.853Z,14.53
2018-07-06T10:14:38.012Z,12.07
2018-07-06T10:17:06.391Z,13.37
2018-07-06T10:19:35.476Z,14.73
2018-07-06T10:22:03.938Z,14.63
2018-07-06T10:24:32.331Z,14.40
2018-07-06T10:27:00.692Z,13.70
2018-07-06T10:30:05.046Z,11.93
2018-07-06T10:32:33.516Z,13.80
2018-07-06T10:35:02.436Z,14.20
2018-07-06T10:37:31.197Z,11.03
2018-07-06T10:39:59.745Z,13.23
2018-07-06T10:42:28.161Z,12.50
2018-07-06T10:44:56.894Z,11.27
2018-07-06T10:47:25.432Z,10.47
2018-07-06T10:49:53.900Z,11.73
2018-07-06T10:52:22.324Z,11.17
2018-07-06T10:54:50.748Z,11.40
2018-07-06T10:57:19.160Z,10.53
2018-07-06T10:59:47.725Z,10.27
2018-07-06T11:02:16.219Z,9.90
2018-07-06T11:04:44.590Z,8.93
2018-07-06T11:07:13.024Z,7.67
2018-07-06T11:09:41.578Z,8.43
2018-07-06T11:12:10.117Z,9.93
2018-07-06T11:14:38.539Z,9.97
2018-07-06T11:17:07.044Z,10.27
2018-07-06T11:19:35.479Z,10.17
2018-07-06T11:22:03.932Z,8.73
2018-07-06T11:24:32.298Z,8.07
2018-07-06T11:27:00.737Z,8.67
2018-07-06T11:29:29.229Z,7.30
2018-07-06T11:31:57.736Z,9.20
2018-07-06T11:34:26.176Z,6.57
2018-07-06T11:36:54.589Z,7.37
2018-07-06T11:39:22.952Z,7.67
2018-07-06T11:41:51.487Z,7.53
2018-07-06T11:44:19.996Z,8.37
2018-07-06T11:46:49.132Z,8.37
2018-07-06T11:49:17.796Z,6.27
2018-07-06T11:51:46.137Z,6.90
2018-07-06T11:54:14.536Z,7.17
2018-07-06T11:56:42.898Z,8.53
2018-07-06T11:59:11.259Z,6.93
2018-07-06T12:01:39.856Z,8.20
2018-07-06T12:04:08.289Z,7.50
2018-07-06T12:06:36.637Z,7.10
2018-07-06T12:09:05.708Z,7.33
2018-07-06T12:11:34.211Z,7.10
2018-07-06T12:14:02.828Z,6.60
2018-07-06T12:16:31.168Z,6.70
2018-07-06T12:18:59.527Z,6.30
2018-07-06T12:21:27.980Z,8.23
2018-07-06T12:23:56.733Z,7.90
2018-07-06T12:26:25.742Z,7.03
2018-07-06T12:28:54.308Z,6.10
2018-07-06T12:31:22.699Z,8.43
2018-07-06T12:33:51.748Z,6.20
2018-07-06T12:36:20.267Z,7.87
2018-07-06T12:38:48.827Z,8.00
2018-07-06T12:41:17.364Z,7.07
2018-07-06T12:43:45.732Z,7.30
2018-07-06T12:46:14.157Z,7.97
2018-07-06T12:48:42.685Z,6.90
2018-07-06T12:51:11.187Z,6.00
2018-07-06T12:53:39.734Z,6.00
2018-07-06T12:56:08.158Z,7.23
2018-07-06T12:58:37.251Z,6.67
2018-07-06T13:01:05.771Z,6.30
2018-07-06T13:03:34.221Z,7.47
2018-07-06T13:06:02.700Z,7.03
2018-07-06T13:08:31.239Z,5.40
2018-07-06T13:10:59.681Z,6.13
2018-07-06T13:13:28.036Z,6.20
2018-07-06T13:15:56.468Z,5.63
2018-07-06T13:18:24.853Z,5.73
2018-07-06T13:20:53.428Z,6.33
2018-07-06T13:23:21.920Z,5.50
2018-07-06T13:25:50.376Z,5.13
2018-07-06T13:28:18.727Z,4.50
2018-07-06T13:30:47.144Z,4.13
2018-07-06T13:33:15.491Z,4.40
2018-07-06T13:35:44.119Z,5.80
2018-07-06T13:38:12.532Z,4.97
2018-07-06T13:40:41.030Z,4.97
2018-07-06T13:43:10.074Z,5.13
2018-07-06T13:45:38.548Z,5.20
2018-07-06T13:48:06.976Z,3.27
2018-07-06T13:50:35.567Z,4.20
2018-07-06T13:53:04.882Z,4.10
2018-07-06T13:55:33.260Z,4.40
2018-07-06T13:58:01.672Z,4.60
2018-07-06T14:00:30.064Z,5.00
2018-07-06T14:02:58.510Z,4.30
2018-07-06T14:05:26.944Z,3.93
2018-07-06T14:07:55.369Z,4.50
2018-07-06T14:10:23.728Z,5.07
2018-07-06T14:12:52.131Z,3.70
2018-07-06T14:15:20.580Z,4.70
2018-07-06T14:17:49.039Z,3.97
2018-07-06T14:20:17.707Z,4.20
2018-07-06T14:22:46.117Z,4.73
2018-07-06T14:25:14.522Z,3.90
2018-07-06T14:27:42.895Z,4.40
2018-07-06T14:30:11.373Z,5.10
2018-07-06T14:32:39.985Z,4.27
2018-07-06T14:35:08.484Z,4.57
2018-07-06T14:37:37.576Z,4.60
2018-07-06T14:40:05.967Z,4.47
2018-07-06T14:42:34.417Z,4.80
2018-07-06T14:45:05.219Z,5.47
2018-07-06T14:47:33.687Z,4.93
2018-07-06T14:50:02.087Z,4.90
2018-07-06T14:52:30.990Z,5.53
2018-07-06T14:54:59.756Z,4.90
2018-07-06T14:57:27.810Z,5.07
2018-07-06T14:59:56.211Z,4.60
2018-07-06T15:02:24.615Z,4.20
2018-07-06T15:04:53.038Z,4.20
2018-07-06T15:07:21.512Z,4.60
2018-07-06T15:09:50.091Z,5.17
2018-07-06T15:12:18.744Z,4.70
2018-07-06T15:14:47.179Z,4.63
2018-07-06T15:17:15.848Z,4.97
2018-07-06T15:19:44.663Z,4.90
2018-07-06T15:22:13.313Z,4.70
2018-07-06T15:24:41.992Z,5.43
2018-07-06T15:27:10.519Z,4.33
2018-07-06T15:29:38.960Z,4.77
2018-07-06T15:32:07.361Z,5.83
2018-07-06T15:34:35.989Z,4.20
2018-07-06T15:37:04.934Z,5.10
2018-07-06T15:39:33.470Z,4.60
2018-07-06T15:42:01.936Z,4.17
2018-07-06T15:44:32.875Z,3.63
2018-07-06T15:47:01.263Z,4.17
2018-07-06T15:49:29.818Z,4.20
2018-07-06T15:51:58.360Z,4.33
2018-07-06T15:54:26.823Z,3.97
2018-07-06T15:56:55.271Z,3.83
2018-07-06T15:59:23.713Z,3.90
2018-07-06T16:01:52.211Z,4.00
2018-07-06T16:04:20.584Z,4.07
2018-07-06T16:06:48.976Z,3.80
2018-07-06T16:09:17.315Z,4.00
2018-07-06T16:11:45.758Z,4.67
2018-07-06T16:14:14.308Z,4.00
2018-07-06T16:16:42.706Z,3.83
2018-07-06T16:19:11.129Z,4.50
2018-07-06T16:21:39.560Z,5.00
2018-07-06T16:24:07.908Z,4.00
2018-07-06T16:26:36.343Z,4.67
2018-07-06T16:29:04.829Z,4.47
2018-07-06T16:31:33.244Z,4.60
2018-07-06T16:34:01.616Z,5.17
2018-07-06T16:36:30.290Z,4.23
2018-07-06T16:38:59.004Z,4.70
2018-07-06T16:41:27.394Z,5.13
2018-07-06T16:43:56.350Z,4.13
2018-07-06T16:46:24.759Z,4.20
2018-07-06T16:48:53.990Z,3.70
2018-07-06T16:51:23.014Z,3.70
2018-07-06T16:53:51.720Z,3.40
2018-07-06T16:56:20.020Z,3.50
2018-07-06T16:58:48.416Z,3.60
2018-07-06T17:01:16.839Z,3.07
2018-07-06T17:03:45.200Z,2.90
2018-07-06T17:06:13.529Z,2.90
2018-07-06T17:08:41.839Z,3.33
2018-07-06T17:11:10.200Z,3.10
2018-07-06T17:13:38.507Z,2.43
2018-07-06T17:16:06.876Z,2.90
2018-07-06T17:18:36.172Z,2.60
2018-07-06T17:21:04.538Z,3.27
2018-07-06T17:23:32.879Z,3.10
2018-07-06T17:26:01.401Z,3.20
2018-07-06T17:28:30.347Z,2.87
2018-07-06T17:30:58.660Z,4.20
2018-07-06T17:33:26.992Z,4.37
2018-07-06T17:35:55.312Z,3.20
2018-07-06T17:38:23.611Z,3.43
2018-07-06T17:40:51.957Z,3.80
2018-07-06T17:43:20.271Z,3.90
2018-07-06T17:45:48.864Z,3.40
2018-07-06T17:48:17.203Z,2.77
2018-07-06T17:50:45.525Z,2.60
2018-07-06T17:53:13.856Z,2.67
2018-07-06T17:55:42.204Z,2.67
2018-07-06T17:58:10.515Z,2.50
2018-07-06T18:00:38.828Z,2.50
2018-07-06T18:03:08.124Z,2.30
2018-07-06T18:05:36.528Z,2.83
2018-07-06T18:08:05.364Z,2.50
2018-07-06T18:10:33.678Z,2.70
2018-07-06T18:13:02.062Z,3.37
2018-07-06T18:15:30.423Z,2.83
2018-07-06T18:17:58.820Z,2.43
2018-07-06T18:20:27.184Z,2.53
2018-07-06T18:22:55.602Z,3.47
2018-07-06T18:25:23.910Z,2.30
2018-07-06T18:27:52.224Z,2.33
2018-07-06T18:30:20.572Z,2.97
2018-07-06T18:32:48.905Z,2.90
2018-07-06T18:35:17.228Z,2.50
2018-07-06T18:37:45.604Z,2.57
2018-07-06T18:40:13.932Z,2.40
2018-07-06T18:42:42.244Z,3.00
2018-07-06T18:45:11.400Z,3.20
2018-07-06T18:47:39.761Z,2.77
2018-07-06T18:50:08.032Z,2.70
2018-07-06T18:52:36.336Z,3.17
2018-07-06T18:55:05.100Z,2.80
2018-07-06T18:57:33.421Z,2.40
2018-07-06T19:00:01.791Z,2.60
2018-07-06T19:02:30.111Z,3.00
2018-07-06T19:04:58.428Z,2.50
2018-07-06T19:07:26.744Z,2.90
2018-07-06T19:09:55.807Z,2.93
2018-07-06T19:12:24.124Z,3.27
2018-07-06T19:14:52.479Z,2.90
2018-07-06T19:17:20.794Z,2.83
2018-07-06T19:19:49.138Z,3.53
2018-07-06T19:22:17.488Z,3.17
2018-07-06T19:24:45.863Z,2.80
2018-07-06T19:27:14.179Z,3.30
2018-07-06T19:29:42.500Z,3.00
2018-07-06T19:32:10.824Z,2.87
2018-07-06T19:34:39.150Z,3.67
2018-07-06T19:37:07.582Z,3.77
2018-07-06T19:39:36.020Z,3.37
2018-07-06T19:42:04.341Z,3.60
2018-07-06T19:44:32.664Z,4.13
2018-07-06T19:47:01.121Z,3.43
2018-07-06T19:49:29.488Z,3.73
2018-07-06T19:51:57.801Z,3.27
2018-07-06T19:54:26.483Z,2.93
2018-07-06T19:56:54.912Z,3.33
2018-07-06T19:59:23.796Z,3.30
2018-07-06T20:01:52.123Z,3.20
2018-07-06T20:04:20.503Z,3.70
2018-07-06T20:06:49.129Z,3.07
2018-07-06T20:09:17.467Z,4.40
2018-07-06T20:11:45.800Z,3.50
2018-07-06T20:14:14.267Z,3.40
2018-07-06T20:16:42.649Z,3.50
2018-07-06T20:19:10.958Z,4.00
2018-07-06T20:21:39.483Z,3.37
2018-07-06T20:24:07.824Z,3.50
2018-07-06T20:26:36.524Z,3.53
2018-07-06T20:29:04.952Z,3.70
2018-07-06T20:31:33.167Z,4.10
2018-07-06T20:34:02.140Z,3.73
2018-07-06T20:36:30.573Z,3.93
2018-07-06T20:38:58.876Z,3.83
2018-07-06T20:41:27.304Z,3.60
2018-07-06T20:43:55.631Z,4.10
2018-07-06T20:46:23.992Z,3.33
2018-07-06T20:48:52.415Z,3.87
2018-07-06T20:51:20.736Z,3.60
2018-07-06T20:53:49.121Z,3.80
2018-07-06T20:56:17.381Z,3.90
2018-07-06T20:58:45.712Z,4.00
2018-07-06T21:01:14.042Z,4.20
2018-07-06T21:03:42.376Z,3.60
2018-07-06T21:06:10.699Z,3.83
2018-07-06T21:08:39.044Z,3.80
2018-07-06T21:11:07.644Z,3.93
2018-07-06T21:13:35.941Z,5.10
2018-07-06T21:16:04.357Z,3.97
2018-07-06T21:18:32.620Z,4.73
2018-07-06T21:21:00.954Z,3.50
2018-07-06T21:23:29.245Z,3.93
2018-07-06T21:25:57.560Z,4.73
2018-07-06T21:28:25.911Z,3.80
2018-07-06T21:30:54.965Z,3.70
2018-07-06T21:33:23.296Z,4.40
2018-07-06T21:35:51.671Z,4.00
2018-07-06T21:38:19.956Z,4.67
2018-07-06T21:40:48.263Z,4.27
2018-07-06T21:43:16.568Z,4.57
2018-07-06T21:45:45.088Z,4.07
2018-07-06T21:48:13.422Z,3.90
2018-07-06T21:50:41.764Z,3.50
2018-07-06T21:53:10.079Z,4.10
2018-07-06T21:55:38.700Z,4.70
2018-07-06T21:58:07.485Z,3.60
2018-07-06T22:00:40.283Z,3.87
2018-07-06T22:03:10.317Z,4.40
2018-07-06T22:05:39.611Z,3.67
2018-07-06T22:08:08.223Z,4.40
2018-07-06T22:10:37.109Z,4.00
2018-07-06T22:13:06.134Z,4.67
2018-07-06T22:15:49.785Z,3.87
2018-07-06T22:18:19.068Z,5.30
2018-07-06T22:20:48.745Z,4.53
2018-07-06T22:23:17.405Z,4.20
2018-07-06T22:25:46.792Z,4.60
2018-07-06T22:28:15.639Z,4.40
2018-07-06T22:34:34.693Z,4.87
2018-07-06T22:37:05.564Z,5.13
2018-07-06T22:39:37.518Z,4.70
2018-07-06T22:42:06.900Z,4.40
2018-07-06T22:44:40.457Z,4.40
2018-07-06T22:47:09.344Z,3.63
2018-07-06T22:49:42.704Z,5.00
2018-07-06T22:52:15.356Z,5.00
2018-07-06T22:54:45.516Z,3.97
2018-07-06T22:57:18.648Z,4.33
2018-07-06T22:59:48.248Z,4.63
2018-07-06T23:02:19.353Z,4.80
2018-07-06T23:04:52.751Z,4.50
2018-07-06T23:07:22.896Z,4.97
2018-07-06T23:09:51.561Z,5.60
2018-07-06T23:12:19.889Z,4.40
2018-07-06T23:14:48.207Z,5.73
2018-07-06T23:17:16.532Z,4.23
2018-07-06T23:19:45.480Z,13.53
2018-07-06T23:22:19.208Z,7.03
2018-07-06T23:24:47.528Z,5.47
2018-07-06T23:27:15.845Z,4.93
2018-07-06T23:29:44.172Z,4.87
2018-07-06T23:32:12.576Z,4.50
2018-07-06T23:34:40.864Z,4.33
2018-07-06T23:37:09.256Z,4.53
2018-07-06T23:39:37.579Z,5.17
2018-07-06T23:42:05.963Z,4.57
2018-07-06T23:44:34.277Z,5.40
2018-07-06T23:47:02.607Z,5.50
2018-07-06T23:49:30.896Z,4.93
2018-07-06T23:51:59.215Z,4.80
2018-07-06T23:54:27.585Z,5.00
2018-07-06T23:57:02.424Z,4.53
2018-07-06T23:59:30.769Z,4.67
